Time;durP1;ratioP1;P1;durP2;ratioP2;P2;SDS_P1;SDS_P2;PMS_P1;PMS_P2;Temp;Humidity;BMP_temperature;BMP_pressure;BME280_temperature;BME280_humidity;BME280_pressure;Samples;Min_cycle;Max_cycle;Signal;HPM_P1;HPM_P2
2023/04/28 00:00:53;;;;;;;;;;;;;;;1.70;76.74;100959.42;104325;276;120749;-53
2023/04/28 00:03:26;;;;;;;;;;;;;;;1.70;76.99;100957.83;104303;276;106294;-53
2023/04/28 00:05:58;;;;;;;;;;;;;;;1.64;77.01;100961.53;104762;317;114815;-55
2023/04/28 00:08:30;;;;;;;;;;;;;;;1.61;77.02;100962.29;104299;276;95305;-55
2023/04/28 00:11:03;;;;;;;;;;;;;;;1.57;77.01;100962.20;104341;276;96944;-54
2023/04/28 00:13:36;;;;;;;;;;;;;;;1.49;77.16;100965.35;104778;276;119174;-55
2023/04/28 00:16:09;;;;;;;;;;;;;;;1.45;77.16;100964.40;104372;276;105784;-53
2023/04/28 00:18:41;;;;;;;;;;;;;;;1.43;77.24;100967.62;104342;276;113473;-53
2023/04/28 00:21:13;;;;;;;;;;;;;;;1.39;77.12;100967.50;104344;276;94980;-52
2023/04/28 00:23:45;;;;;;;;;;;;;;;1.32;77.18;100964.54;104354;276;98190;-53
2023/04/28 00:26:18;;;;;;;;;;;;;;;1.26;77.34;100966.58;104320;276;120447;-54
2023/04/28 00:28:50;;;;;;;;;;;;;;;1.23;77.40;100962.91;104328;276;105355;-52
2023/04/28 00:31:22;;;;;;;;;;;;;;;1.17;77.33;100960.90;104764;276;112462;-52
2023/04/28 00:33:54;;;;;;;;;;;;;;;1.13;77.31;100963.87;104322;276;94068;-52
2023/04/28 00:36:30;;;;;;;;;;;;;;;1.08;77.31;100962.11;104333;276;96967;-52
2023/04/28 00:39:03;;;;;;;;;;;;;;;0.99;77.44;100965.23;104325;276;121572;-53
2023/04/28 00:41:36;;;;;;;;;;;;;;;0.94;77.47;100966.18;104333;276;104648;-52
2023/04/28 00:44:08;;;;;;;;;;;;;;;0.86;77.45;100967.33;104060;276;114784;-55
2023/04/28 00:46:40;;;;;;;;;;;;;;;0.78;77.54;100969.31;104334;276;94539;-56
2023/04/28 00:49:12;;;;;;;;;;;;;;;0.76;77.63;100969.52;104329;276;98354;-52
2023/04/28 00:51:44;;;;;;;;;;;;;;;0.73;77.71;100969.00;104775;276;120585;-52
2023/04/28 00:54:16;;;;;;;;;;;;;;;0.70;77.81;100971.73;104764;276;105329;-54
2023/04/28 00:56:49;;;;;;;;;;;;;;;0.66;77.89;100973.05;104328;276;114637;-54
2023/04/28 00:59:21;;;;;;;;;;;;;;;0.64;77.86;100977.84;104360;276;96041;-54
2023/04/28 01:01:54;;;;;;;;;;;;;;;0.61;78.00;100978.19;104771;276;97166;-54
2023/04/28 01:04:27;;;;;;;;;;;;;;;0.58;78.05;100982.32;104383;276;120338;-52
2023/04/28 01:07:00;;;;;;;;;;;;;;;0.53;78.15;100977.58;104390;276;104124;-52
2023/04/28 01:09:32;;;;;;;;;;;;;;;0.50;78.16;100978.83;104377;276;114289;-54
2023/04/28 01:12:05;;;;;;;;;;;;;;;0.52;78.18;100981.66;104389;276;95373;-54
2023/04/28 01:14:37;;;;;;;;;;;;;;;0.51;78.19;100982.69;104349;276;96482;-54
2023/04/28 01:17:10;;;;;;;;;;;;;;;0.47;78.18;100985.11;104775;276;120324;-54
2023/04/28 01:19:42;;;;;;;;;;;;;;;0.45;78.16;100987.02;104404;276;106303;-54
2023/04/28 01:22:15;;;;;;;;;;;;;;;0.43;78.17;100988.92;104754;276;114452;-55
2023/04/28 01:24:47;;;;;;;;;;;;;;;0.38;78.29;100990.52;104372;276;92622;-55
2023/04/28 01:27:20;;;;;;;;;;;;;;;0.34;78.33;100991.73;104816;276;96648;-54
2023/04/28 01:29:53;;;;;;;;;;;;;;;0.27;78.32;100989.91;104020;276;120617;-53
2023/04/28 01:32:25;;;;;;;;;;;;;;;0.22;78.37;100986.91;104426;276;105772;-54
2023/04/28 01:34:57;;;;;;;;;;;;;;;0.18;78.30;100991.47;104403;276;114943;-54
2023/04/28 01:37:29;;;;;;;;;;;;;;;0.11;78.33;100987.13;104408;276;93427;-54
2023/04/28 01:40:02;;;;;;;;;;;;;;;0.06;78.48;100988.77;104420;276;98079;-54
2023/04/28 01:42:34;;;;;;;;;;;;;;;0.03;78.46;100993.10;104757;276;120907;-54
2023/04/28 01:45:08;;;;;;;;;;;;;;;0.00;78.50;100993.06;104389;276;104574;-52
2023/04/28 01:47:40;;;;;;;;;;;;;;;-0.05;78.66;100992.00;104789;276;113795;-52
2023/04/28 01:50:13;;;;;;;;;;;;;;;-0.08;78.66;100995.98;104794;276;95210;-52
2023/04/28 01:52:45;;;;;;;;;;;;;;;-0.13;78.80;100995.93;104811;276;97259;-52
2023/04/28 01:55:17;;;;;;;;;;;;;;;-0.14;78.90;100996.55;104420;276;119354;-52
2023/04/28 01:57:49;;;;;;;;;;;;;;;-0.16;79.00;100994.52;104799;276;105547;-54
2023/04/28 02:00:22;;;;;;;;;;;;;;;-0.15;79.00;100997.00;104779;280;112505;-52
2023/04/28 02:02:54;;;;;;;;;;;;;;;-0.16;79.11;100993.17;104759;276;94523;-52
2023/04/28 02:05:27;;;;;;;;;;;;;;;-0.17;79.19;100989.66;104351;276;97628;-52
2023/04/28 02:07:59;;;;;;;;;;;;;;;-0.19;79.25;100990.16;104756;276;119921;-52
2023/04/28 02:10:31;;;;;;;;;;;;;;;-0.20;79.36;100987.06;104375;276;105494;-53
2023/04/28 02:13:03;;;;;;;;;;;;;;;-0.20;79.37;100987.98;104331;276;115015;-53
2023/04/28 02:15:39;;;;;;;;;;;;;;;-0.20;79.40;100988.48;104337;276;95776;-53
2023/04/28 02:18:11;;;;;;;;;;;;;;;-0.18;79.43;100987.23;104379;276;97403;-53
2023/04/28 02:20:43;;;;;;;;;;;;;;;-0.17;79.49;100992.35;104757;276;121677;-52
2023/04/28 02:23:16;;;;;;;;;;;;;;;-0.14;79.58;100995.34;104775;276;104612;-53
2023/04/28 02:25:48;;;;;;;;;;;;;;;-0.12;79.60;100993.95;104342;276;114249;-52
2023/04/28 02:28:20;;;;;;;;;;;;;;;-0.11;79.63;100998.12;104366;276;92914;-52
2023/04/28 02:30:52;;;;;;;;;;;;;;;-0.15;79.66;101002.49;104363;276;97754;-52
2023/04/28 02:33:24;;;;;;;;;;;;;;;-0.16;79.47;101001.15;104796;276;120854;-52
2023/04/28 02:36:02;;;;;;;;;;;;;;;-0.19;79.46;100999.02;104373;276;105827;-52
2023/04/28 02:38:34;;;;;;;;;;;;;;;-0.25;79.43;100997.65;104339;276;114635;-52
2023/04/28 02:41:08;;;;;;;;;;;;;;;-0.31;79.43;100997.75;104765;276;92691;-52
2023/04/28 02:43:40;;;;;;;;;;;;;;;-0.35;79.41;100996.42;104386;276;96217;-52
2023/04/28 02:46:12;;;;;;;;;;;;;;;-0.37;79.57;100995.70;104368;276;118627;-52
2023/04/28 02:48:44;;;;;;;;;;;;;;;-0.40;79.57;100996.83;104080;278;104107;-52
2023/04/28 02:51:17;;;;;;;;;;;;;;;-0.46;79.55;100992.08;104318;276;114687;-52
2023/04/28 02:53:49;;;;;;;;;;;;;;;-0.49;79.66;100992.13;104309;276;96062;-54
2023/04/28 02:56:21;;;;;;;;;;;;;;;-0.48;79.78;100989.70;104110;276;97027;-54
2023/04/28 02:58:54;;;;;;;;;;;;;;;-0.47;79.92;100993.36;104307;276;121228;-52
2023/04/28 03:01:26;;;;;;;;;;;;;;;-0.44;80.02;100997.98;104773;276;106154;-52
2023/04/28 03:03:58;;;;;;;;;;;;;;;-0.41;80.05;100999.68;104790;276;114916;-52
2023/04/28 03:06:31;;;;;;;;;;;;;;;-0.38;80.23;100998.60;104785;276;94084;-52
2023/04/28 03:09:04;;;;;;;;;;;;;;;-0.33;80.25;100994.67;104342;276;97717;-52
2023/04/28 03:11:36;;;;;;;;;;;;;;;-0.33;80.28;101000.36;104059;278;120949;-52
2023/04/28 03:14:08;;;;;;;;;;;;;;;-0.25;80.42;101000.91;104322;276;105785;-53
2023/04/28 03:16:40;;;;;;;;;;;;;;;-0.21;80.31;101004.10;104326;276;112590;-52
2023/04/28 03:19:12;;;;;;;;;;;;;;;-0.16;80.40;101002.38;104386;276;96331;-54
2023/04/28 03:21:45;;;;;;;;;;;;;;;-0.10;80.30;101005.15;104389;276;95664;-54
2023/04/28 03:24:17;;;;;;;;;;;;;;;-0.03;80.32;101008.88;104807;276;120586;-54
2023/04/28 03:26:49;;;;;;;;;;;;;;;0.03;80.42;101009.52;104748;276;105195;-54
2023/04/28 03:29:23;;;;;;;;;;;;;;;0.07;80.51;101009.41;104391;276;114717;-54
2023/04/28 03:31:55;;;;;;;;;;;;;;;0.14;80.41;101011.71;104777;276;95933;-54
2023/04/28 03:34:27;;;;;;;;;;;;;;;0.25;80.37;101015.58;104806;276;97132;-52
2023/04/28 03:36:59;;;;;;;;;;;;;;;0.30;80.53;101014.11;104363;276;120677;-52
2023/04/28 03:39:31;;;;;;;;;;;;;;;0.35;80.59;101014.61;104346;276;104037;-55
2023/04/28 03:42:04;;;;;;;;;;;;;;;0.45;80.69;101015.55;104743;280;114055;-55
2023/04/28 03:44:36;;;;;;;;;;;;;;;0.54;80.49;101013.64;104343;276;91972;-53
2023/04/28 03:47:08;;;;;;;;;;;;;;;0.59;80.47;101011.30;104814;276;97571;-53
2023/04/28 03:49:40;;;;;;;;;;;;;;;0.65;80.56;101015.54;104360;276;119282;-53
2023/04/28 03:52:12;;;;;;;;;;;;;;;0.71;80.64;101010.09;104811;276;105555;-52
2023/04/28 03:54:45;;;;;;;;;;;;;;;0.76;80.68;101011.32;104794;276;114709;-52
2023/04/28 03:57:17;;;;;;;;;;;;;;;0.86;80.59;101009.54;104306;276;94116;-52
2023/04/28 03:59:49;;;;;;;;;;;;;;;1.41;80.77;101007.97;104083;278;98273;-55
2023/04/28 04:02:22;;;;;;;;;;;;;;;2.91;80.42;101005.77;104368;276;119707;-55
2023/04/28 04:04:54;;;;;;;;;;;;;;;4.03;79.32;101009.77;104391;276;104798;-56
2023/04/28 04:07:27;;;;;;;;;;;;;;;4.24;78.91;101012.07;104341;276;114555;-55
2023/04/28 04:10:01;;;;;;;;;;;;;;;3.90;78.19;101014.45;104346;276;96206;-54
2023/04/28 04:12:34;;;;;;;;;;;;;;;3.31;78.05;101014.39;104341;276;97058;-54
2023/04/28 04:15:07;;;;;;;;;;;;;;;2.85;78.23;101016.43;104799;276;119275;-53
2023/04/28 04:17:39;;;;;;;;;;;;;;;2.63;77.93;101020.92;104807;276;106116;-53
2023/04/28 04:20:13;;;;;;;;;;;;;;;2.38;78.13;101017.79;104349;276;114744;-53
2023/04/28 04:22:45;;;;;;;;;;;;;;;2.19;78.22;101020.22;104325;276;92478;-53
2023/04/28 04:25:18;;;;;;;;;;;;;;;2.12;78.18;101022.70;104361;276;95934;-53
2023/04/28 04:27:51;;;;;;;;;;;;;;;2.05;78.23;101025.40;104792;276;122794;-54
2023/04/28 04:30:23;;;;;;;;;;;;;;;2.69;78.49;101027.16;104384;276;105439;-53
2023/04/28 04:32:55;;;;;;;;;;;;;;;3.85;78.20;101022.92;104763;276;113889;-53
2023/04/28 04:35:28;;;;;;;;;;;;;;;5.32;77.68;101018.43;104346;276;93282;-53
2023/04/28 04:38:00;;;;;;;;;;;;;;;6.85;76.37;101016.27;104413;276;97403;-53
2023/04/28 04:40:32;;;;;;;;;;;;;;;8.37;75.06;101015.47;104364;280;120271;-56
2023/04/28 04:43:05;;;;;;;;;;;;;;;9.90;73.53;101009.18;104392;276;105818;-55
2023/04/28 04:45:38;;;;;;;;;;;;;;;11.24;71.41;101006.90;104404;276;113919;-54
2023/04/28 04:48:11;;;;;;;;;;;;;;;12.19;70.61;101009.47;104412;276;93240;-54
2023/04/28 04:50:43;;;;;;;;;;;;;;;13.08;68.47;101010.40;104801;276;98129;-56
2023/04/28 04:53:16;;;;;;;;;;;;;;;13.96;66.61;101005.14;104405;276;120836;-54
2023/04/28 04:55:48;;;;;;;;;;;;;;;14.92;64.28;101009.11;104795;276;104760;-55
2023/04/28 04:58:21;;;;;;;;;;;;;;;15.56;63.30;101009.20;104402;276;114622;-55
2023/04/28 05:00:53;;;;;;;;;;;;;;;16.36;61.95;101007.94;104797;276;94070;-53
2023/04/28 05:03:26;;;;;;;;;;;;;;;17.26;60.07;101008.20;104433;276;96229;-53
2023/04/28 05:05:58;;;;;;;;;;;;;;;17.67;59.35;101005.79;104825;276;120893;-56
2023/04/28 05:08:30;;;;;;;;;;;;;;;18.16;57.49;101005.16;104788;276;105192;-56
2023/04/28 05:11:03;;;;;;;;;;;;;;;18.23;55.64;101010.60;104392;276;113981;-54
2023/04/28 05:13:35;;;;;;;;;;;;;;;18.17;54.36;101010.02;104784;276;94491;-54
2023/04/28 05:16:09;;;;;;;;;;;;;;;18.14;53.74;101012.03;104391;276;97353;-56
2023/04/28 05:18:41;;;;;;;;;;;;;;;17.83;52.67;101012.28;104765;276;121268;-54
2023/04/28 05:21:13;;;;;;;;;;;;;;;17.99;51.69;101011.31;104409;276;105773;-56
2023/04/28 05:23:45;;;;;;;;;;;;;;;18.66;50.68;101011.55;104395;284;113552;-54
2023/04/28 05:26:18;;;;;;;;;;;;;;;19.54;49.57;101012.66;104762;265;94999;-53
2023/04/28 05:28:50;;;;;;;;;;;;;;;19.94;47.41;101012.83;104388;276;97129;-55
2023/04/28 05:31:23;;;;;;;;;;;;;;;20.07;47.37;101011.14;104747;281;119991;-56
2023/04/28 05:33:55;;;;;;;;;;;;;;;20.60;46.79;101010.09;104401;276;106486;-53
2023/04/28 05:36:27;;;;;;;;;;;;;;;21.53;45.52;101009.03;104378;276;113916;-54
2023/04/28 05:39:00;;;;;;;;;;;;;;;22.06;44.30;101006.77;104398;276;93768;-53
2023/04/28 05:41:32;;;;;;;;;;;;;;;22.31;43.51;101008.27;104410;276;97711;-54
2023/04/28 05:44:06;;;;;;;;;;;;;;;22.72;41.76;101010.83;104374;276;121390;-55
2023/04/28 05:46:38;;;;;;;;;;;;;;;23.14;40.93;101010.41;104358;276;104938;-54
2023/04/28 05:49:11;;;;;;;;;;;;;;;23.47;39.79;101010.59;104360;276;114636;-56
2023/04/28 05:51:47;;;;;;;;;;;;;;;23.70;39.07;101013.81;104391;276;94203;-62
2023/04/28 05:54:20;;;;;;;;;;;;;;;23.88;38.54;101014.21;104810;276;95575;-57
2023/04/28 05:56:53;;;;;;;;;;;;;;;24.25;37.75;101013.01;104372;276;119623;-56
2023/04/28 05:59:27;;;;;;;;;;;;;;;24.54;37.06;101014.92;104766;276;104182;-55
2023/04/28 06:01:59;;;;;;;;;;;;;;;24.36;36.83;101014.70;104360;276;114386;-56
2023/04/28 06:04:31;;;;;;;;;;;;;;;24.74;36.12;101015.23;104338;276;93500;-54
2023/04/28 06:07:03;;;;;;;;;;;;;;;25.32;35.63;101012.70;104348;276;97947;-53
2023/04/28 06:09:36;;;;;;;;;;;;;;;25.61;35.14;101013.24;104377;276;121601;-53
2023/04/28 06:12:09;;;;;;;;;;;;;;;25.84;34.16;101011.13;104328;276;105814;-54
2023/04/28 06:14:41;;;;;;;;;;;;;;;25.39;34.27;101011.33;104324;276;114403;-57
2023/04/28 06:17:13;;;;;;;;;;;;;;;25.83;33.88;101012.39;104346;276;95067;-56
2023/04/28 06:19:46;;;;;;;;;;;;;;;26.05;33.06;101013.25;104057;278;99133;-56
2023/04/28 06:22:18;;;;;;;;;;;;;;;26.58;32.49;101011.29;104355;276;121559;-55
2023/04/28 06:24:50;;;;;;;;;;;;;;;26.27;32.46;101015.44;104373;276;106077;-56
2023/04/28 06:27:22;;;;;;;;;;;;;;;26.55;32.36;101012.52;104342;276;113935;-56
2023/04/28 06:29:55;;;;;;;;;;;;;;;26.61;31.94;101008.07;104352;276;93701;-56
2023/04/28 06:32:27;;;;;;;;;;;;;;;26.93;31.34;101011.17;104792;276;96281;-55
2023/04/28 06:34:59;;;;;;;;;;;;;;;27.45;30.72;101009.13;104348;276;120083;-56
2023/04/28 06:37:31;;;;;;;;;;;;;;;27.67;30.11;101008.72;104808;276;106528;-56
2023/04/28 06:40:03;;;;;;;;;;;;;;;27.90;29.70;101005.77;104371;280;114415;-57
2023/04/28 06:42:36;;;;;;;;;;;;;;;27.93;29.96;101005.98;104083;278;96345;-56
2023/04/28 06:45:11;;;;;;;;;;;;;;;28.41;28.97;101009.20;104359;276;97591;-56
2023/04/28 06:47:43;;;;;;;;;;;;;;;28.19;28.38;101005.46;104342;276;120817;-56
2023/04/28 06:50:16;;;;;;;;;;;;;;;28.46;27.06;101009.16;104376;276;105766;-56
2023/04/28 06:52:49;;;;;;;;;;;;;;;28.18;27.25;101008.84;104327;276;113776;-56
2023/04/28 06:55:21;;;;;;;;;;;;;;;27.47;27.80;101013.10;104334;276;93410;-53
2023/04/28 06:57:54;;;;;;;;;;;;;;;27.33;27.54;101012.84;104805;276;97635;-54
2023/04/28 07:00:26;;;;;;;;;;;;;;;27.04;26.60;101016.26;104374;276;120127;-53
2023/04/28 07:03:00;;;;;;;;;;;;;;;25.37;26.71;101018.88;104389;276;105924;-57
2023/04/28 07:05:32;;;;;;;;;;;;;;;23.92;27.72;101019.27;104334;276;113853;-57
2023/04/28 07:08:05;;;;;;;;;;;;;;;23.47;28.55;101017.81;104338;276;94897;-56
2023/04/28 07:10:37;;;;;;;;;;;;;;;24.38;28.35;101012.98;104815;276;96063;-53
2023/04/28 07:13:09;;;;;;;;;;;;;;;25.19;28.36;101011.53;104308;276;119623;-52
2023/04/28 07:15:43;;;;;;;;;;;;;;;26.31;27.61;101009.48;104348;276;105883;-55
2023/04/28 07:18:15;;;;;;;;;;;;;;;26.97;26.90;101002.95;104325;276;111835;-56
2023/04/28 07:20:48;;;;;;;;;;;;;;;27.37;26.60;101005.71;104050;278;95816;-55
2023/04/28 07:23:20;;;;;;;;;;;;;;;27.86;26.62;101004.31;104403;276;97911;-57
2023/04/28 07:25:53;;;;;;;;;;;;;;;28.24;26.10;101000.25;104386;276;119749;-54
2023/04/28 07:28:25;;;;;;;;;;;;;;;28.53;25.49;100999.08;104409;276;104897;-54
2023/04/28 07:30:57;;;;;;;;;;;;;;;28.56;25.25;100998.77;104394;276;113962;-56
2023/04/28 07:33:30;;;;;;;;;;;;;;;28.58;24.73;100996.30;104402;276;93143;-55
2023/04/28 07:36:03;;;;;;;;;;;;;;;28.85;25.01;100995.41;104367;276;97026;-58
2023/04/28 07:38:37;;;;;;;;;;;;;;;29.06;24.13;100993.77;104351;276;120390;-61
2023/04/28 07:41:10;;;;;;;;;;;;;;;29.25;24.14;100990.56;104794;276;104652;-59
2023/04/28 07:43:42;;;;;;;;;;;;;;;29.62;23.09;100991.46;104789;276;114570;-58
2023/04/28 07:46:15;;;;;;;;;;;;;;;28.56;23.00;100984.96;104368;276;95406;-59
2023/04/28 07:48:47;;;;;;;;;;;;;;;27.27;23.78;100981.84;104826;276;97724;-57
2023/04/28 07:51:20;;;;;;;;;;;;;;;27.59;24.01;100985.50;104811;276;120957;-57
2023/04/28 07:53:52;;;;;;;;;;;;;;;28.15;23.53;100977.53;104357;276;105466;-57
2023/04/28 07:56:24;;;;;;;;;;;;;;;28.59;23.25;100980.61;104332;276;115245;-55
2023/04/28 07:58:57;;;;;;;;;;;;;;;28.37;23.21;100974.94;104333;276;94163;-56
2023/04/28 08:01:29;;;;;;;;;;;;;;;28.48;22.83;100971.94;104308;276;96355;-55
2023/04/28 08:04:01;;;;;;;;;;;;;;;27.56;22.82;100975.85;104337;276;120784;-60
2023/04/28 08:06:35;;;;;;;;;;;;;;;26.88;22.08;100979.41;104783;276;105224;-60
2023/04/28 08:09:07;;;;;;;;;;;;;;;26.14;22.60;100982.34;104323;276;113633;-55
2023/04/28 08:11:40;;;;;;;;;;;;;;;26.28;23.03;100971.71;104774;276;95087;-55
2023/04/28 08:14:13;;;;;;;;;;;;;;;27.08;23.04;100972.33;104408;276;96195;-56
2023/04/28 08:16:46;;;;;;;;;;;;;;;27.10;22.27;100972.69;104792;276;119978;-56
2023/04/28 08:19:19;;;;;;;;;;;;;;;26.36;22.64;100968.41;104374;276;105324;-56
2023/04/28 08:21:51;;;;;;;;;;;;;;;26.30;23.10;100969.54;104361;276;113659;-58
2023/04/28 08:24:24;;;;;;;;;;;;;;;26.94;21.84;100970.38;104386;276;93876;-55
2023/04/28 08:26:56;;;;;;;;;;;;;;;27.32;22.00;100968.67;104426;276;97236;-54
2023/04/28 08:29:29;;;;;;;;;;;;;;;27.05;22.31;100965.63;104404;276;119199;-54
2023/04/28 08:32:02;;;;;;;;;;;;;;;25.89;22.33;100974.61;104391;276;106002;-55
2023/04/28 08:34:34;;;;;;;;;;;;;;;25.36;23.05;100978.58;104091;276;112975;-57
2023/04/28 08:37:06;;;;;;;;;;;;;;;25.70;22.96;100967.80;104768;276;95523;-58
2023/04/28 08:39:39;;;;;;;;;;;;;;;26.07;22.88;100961.20;104417;276;97442;-57
2023/04/28 08:42:11;;;;;;;;;;;;;;;26.39;22.38;100953.63;104389;276;120348;-57
2023/04/28 08:44:43;;;;;;;;;;;;;;;26.77;22.59;100954.70;104825;276;106535;-56
2023/04/28 08:47:16;;;;;;;;;;;;;;;27.46;22.77;100953.33;104396;276;113533;-58
2023/04/28 08:49:49;;;;;;;;;;;;;;;28.13;22.30;100946.32;104818;276;93309;-55
2023/04/28 08:52:23;;;;;;;;;;;;;;;28.26;21.21;100946.31;104366;276;97006;-55
2023/04/28 08:54:56;;;;;;;;;;;;;;;28.41;21.04;100945.92;104391;276;119363;-58
2023/04/28 08:57:30;;;;;;;;;;;;;;;28.37;20.05;100944.38;104389;276;104024;-57
2023/04/28 09:00:03;;;;;;;;;;;;;;;27.95;19.01;100943.73;104373;276;113626;-56
2023/04/28 09:02:36;;;;;;;;;;;;;;;26.32;19.56;100948.27;104784;276;94863;-56
2023/04/28 09:05:11;;;;;;;;;;;;;;;24.55;20.04;100947.33;104416;276;97149;-55
2023/04/28 09:07:45;;;;;;;;;;;;;;;22.91;20.95;100948.06;104391;276;120383;-55
2023/04/28 09:10:22;;;;;;;;;;;;;;;22.56;22.36;100951.50;104445;276;104719;-57
2023/04/28 09:12:56;;;;;;;;;;;;;;;23.12;22.19;100950.95;104421;276;113975;-57
2023/04/28 09:15:33;;;;;;;;;;;;;;;23.44;22.51;100941.77;104796;276;94809;-56
2023/04/28 09:18:06;;;;;;;;;;;;;;;23.37;22.40;100936.73;104415;276;97508;-56
2023/04/28 09:20:38;;;;;;;;;;;;;;;23.26;22.45;100932.52;104358;276;120271;-55
2023/04/28 09:23:18;;;;;;;;;;;;;;;22.95;21.37;100937.41;104379;276;104746;-54
2023/04/28 09:26:03;;;;;;;;;;;;;;;22.36;22.41;100934.73;104371;276;114542;-56
2023/04/28 09:28:37;;;;;;;;;;;;;;;22.30;22.75;100933.22;103798;276;548205;-55
2023/04/28 09:31:21;;;;;;;;;;;;;;;22.22;23.15;100930.45;104209;276;97166;-54
2023/04/28 09:34:00;;;;;;;;;;;;;;;22.30;23.39;100923.41;104792;276;119657;-55
2023/04/28 09:36:32;;;;;;;;;;;;;;;22.26;23.83;100923.98;104376;276;104963;-56
2023/04/28 09:39:05;;;;;;;;;;;;;;;21.98;23.27;100924.34;104346;276;114677;-55
2023/04/28 09:41:41;;;;;;;;;;;;;;;21.67;23.44;100921.02;104772;276;94277;-54
2023/04/28 09:44:14;;;;;;;;;;;;;;;21.42;23.48;100922.84;104384;276;97426;-54
2023/04/28 09:46:47;;;;;;;;;;;;;;;21.26;23.78;100923.30;104355;276;121510;-54
2023/04/28 09:49:19;;;;;;;;;;;;;;;21.11;24.08;100917.58;104389;276;104751;-56
2023/04/28 09:51:51;;;;;;;;;;;;;;;21.19;24.57;100918.02;104339;276;112451;-57
2023/04/28 09:54:26;;;;;;;;;;;;;;;21.08;23.86;100917.89;104751;276;95015;-57
2023/04/28 09:56:58;;;;;;;;;;;;;;;20.81;24.14;100919.93;104062;278;99437;-56
2023/04/28 09:59:31;;;;;;;;;;;;;;;20.74;23.99;100914.77;104366;276;120739;-56
2023/04/28 10:02:05;;;;;;;;;;;;;;;20.60;24.03;100909.40;104359;276;104276;-56
2023/04/28 10:04:38;;;;;;;;;;;;;;;20.09;23.87;100904.21;104403;276;114236;-55
2023/04/28 10:07:11;;;;;;;;;;;;;;;19.72;24.14;100901.02;104354;276;94554;-54
2023/04/28 10:09:46;;;;;;;;;;;;;;;19.98;24.75;100893.65;104796;276;96226;-56
2023/04/28 10:12:19;;;;;;;;;;;;;;;19.95;24.53;100892.10;104767;276;120995;-57
2023/04/28 10:14:53;;;;;;;;;;;;;;;19.52;24.72;100885.51;104384;276;104547;-54
2023/04/28 10:17:28;;;;;;;;;;;;;;;19.28;25.15;100881.61;104781;276;113442;-55
2023/04/28 10:20:00;;;;;;;;;;;;;;;19.20;24.87;100878.61;104760;276;92503;-57
2023/04/28 10:22:44;;;;;;;;;;;;;;;19.22;25.18;100875.61;104362;276;96887;-57
2023/04/28 10:25:28;;;;;;;;;;;;;;;18.97;25.66;100875.58;104326;277;119896;-57
2023/04/28 10:28:04;;;;;;;;;;;;;;;18.67;25.57;100880.49;104084;277;106141;-56
2023/04/28 10:30:37;;;;;;;;;;;;;;;18.14;26.15;100880.43;104327;277;115023;-58
2023/04/28 10:33:26;;;;;;;;;;;;;;;18.03;26.96;100878.27;104293;277;93970;-57
2023/04/28 10:35:58;;;;;;;;;;;;;;;18.40;27.07;100871.64;104342;277;97307;-54
2023/04/28 10:38:31;;;;;;;;;;;;;;;18.59;26.80;100865.62;104268;276;120625;-54
2023/04/28 10:41:03;;;;;;;;;;;;;;;18.90;26.17;100867.08;104293;320;104493;-54
2023/04/28 10:43:44;;;;;;;;;;;;;;;18.96;26.13;100867.46;104708;277;114376;-54
2023/04/28 10:46:16;;;;;;;;;;;;;;;19.09;25.51;100865.92;104275;277;94658;-57
2023/04/28 10:49:07;;;;;;;;;;;;;;;18.77;24.91;100867.55;104753;277;95252;-55
2023/04/28 10:51:40;;;;;;;;;;;;;;;18.58;25.38;100867.60;104734;277;119817;-55
2023/04/28 10:54:21;;;;;;;;;;;;;;;18.51;25.51;100863.94;104296;277;106053;-57
2023/04/28 10:57:17;;;;;;;;;;;;;;;17.94;25.53;100863.69;104283;277;113180;-56
2023/04/28 10:59:50;;;;;;;;;;;;;;;17.91;25.54;100856.58;104290;277;93471;-54
2023/04/28 11:02:41;;;;;;;;;;;;;;;17.67;25.83;100832.60;104771;285;95276;-54
2023/04/28 11:05:17;;;;;;;;;;;;;;;17.72;26.79;100848.44;104329;277;120030;-54
2023/04/28 11:08:25;;;;;;;;;;;;;;;17.81;26.63;100848.39;104053;278;107673;-54
2023/04/28 11:11:13;;;;;;;;;;;;;;;17.45;26.38;100850.02;103966;277;114879;-55
2023/04/28 11:13:46;;;;;;;;;;;;;;;17.27;27.01;100851.95;104738;277;93882;-54
2023/04/28 11:16:20;;;;;;;;;;;;;;;17.25;27.49;100848.28;104080;278;96727;-55
2023/04/28 11:18:56;;;;;;;;;;;;;;;17.08;27.24;100847.64;104303;277;120581;-56
2023/04/28 11:21:34;;;;;;;;;;;;;;;16.86;27.34;100843.98;104297;277;105107;-54
2023/04/28 11:24:12;;;;;;;;;;;;;;;16.76;27.55;100836.98;104341;276;112763;-54
2023/04/28 11:26:44;;;;;;;;;;;;;;;16.75;27.14;100828.29;104396;276;94131;-57
2023/04/28 11:29:17;;;;;;;;;;;;;;;16.60;26.78;100828.91;104810;276;97097;-58
2023/04/28 11:31:52;;;;;;;;;;;;;;;16.39;27.13;100830.09;104804;276;120102;-56
2023/04/28 11:34:25;;;;;;;;;;;;;;;16.21;27.10;100826.17;104430;276;105019;-54
2023/04/28 11:36:58;;;;;;;;;;;;;;;16.07;27.59;100828.91;104394;276;114584;-54
2023/04/28 11:39:31;;;;;;;;;;;;;;;16.04;27.96;100830.96;104780;276;95414;-53
2023/04/28 11:42:11;;;;;;;;;;;;;;;16.12;28.13;100825.29;104384;276;97913;-54
2023/04/28 11:44:49;;;;;;;;;;;;;;;16.05;27.75;100821.87;104337;276;120786;-65
2023/04/28 11:47:32;;;;;;;;;;;;;;;16.03;27.83;100822.20;104106;276;104646;-63
2023/04/28 11:50:05;;;;;;;;;;;;;;;16.21;27.98;100823.12;104310;276;115173;-64
2023/04/28 11:52:38;;;;;;;;;;;;;;;16.44;28.52;100816.02;104755;276;93623;-55
2023/04/28 11:55:16;;;;;;;;;;;;;;;16.54;28.69;100820.97;104788;276;97734;-57
2023/04/28 11:57:49;;;;;;;;;;;;;;;16.64;28.80;100817.83;104326;276;120654;-57
2023/04/28 12:00:23;;;;;;;;;;;;;;;16.64;28.86;100815.80;104314;276;105708;-55
2023/04/28 12:02:55;;;;;;;;;;;;;;;16.82;29.07;100812.54;104297;276;114223;-54
2023/04/28 12:05:28;;;;;;;;;;;;;;;16.89;28.70;100813.38;104315;276;95129;-57
2023/04/28 12:08:00;;;;;;;;;;;;;;;17.10;28.67;100810.83;104309;276;97706;-57
2023/04/28 12:10:32;;;;;;;;;;;;;;;17.23;28.38;100802.92;104789;276;120255;-56
2023/04/28 12:13:18;;;;;;;;;;;;;;;17.28;27.93;100799.44;104754;276;105072;-56
2023/04/28 12:15:50;;;;;;;;;;;;;;;17.22;28.18;100794.23;104767;276;114125;-56
2023/04/28 12:18:22;;;;;;;;;;;;;;;17.26;28.32;100792.94;104775;276;92514;-56
2023/04/28 12:20:55;;;;;;;;;;;;;;;16.95;27.77;100795.50;104811;276;97115;-55
2023/04/28 12:23:34;;;;;;;;;;;;;;;16.76;27.61;100789.12;104783;276;121262;-55
2023/04/28 12:26:08;;;;;;;;;;;;;;;16.62;27.63;100785.65;104339;276;104447;-55
2023/04/28 12:28:41;;;;;;;;;;;;;;;16.54;27.51;100785.98;104310;276;114936;-56
2023/04/28 12:34:32;;;;;;;;;;;;;;;16.51;28.05;100774.13;104308;276;96625;-59
2023/04/28 12:37:05;;;;;;;;;;;;;;;16.67;28.47;100772.80;104330;276;119874;-66
2023/04/28 12:39:39;;;;;;;;;;;;;;;16.85;28.65;100763.45;104317;276;105439;-56
2023/04/28 12:42:11;;;;;;;;;;;;;;;17.03;28.72;100761.04;104328;276;114828;-56
2023/04/28 12:44:45;;;;;;;;;;;;;;;17.22;28.62;100759.79;104319;276;93679;-57
2023/04/28 12:47:17;;;;;;;;;;;;;;;17.21;28.72;100763.61;104329;276;98245;-62
2023/04/28 12:49:52;;;;;;;;;;;;;;;17.19;28.76;100765.95;104836;276;120601;-62
2023/04/28 12:52:24;;;;;;;;;;;;;;;17.12;28.75;100760.30;104318;276;104798;-63
2023/04/28 12:54:56;;;;;;;;;;;;;;;17.05;28.47;100760.90;104834;276;113815;-62
2023/04/28 12:57:29;;;;;;;;;;;;;;;16.92;28.07;100764.48;104341;276;95168;-63
2023/04/28 13:00:01;;;;;;;;;;;;;;;16.77;28.21;100759.39;104431;276;95264;-63
2023/04/28 13:02:34;;;;;;;;;;;;;;;16.67;28.79;100759.71;104362;276;120974;-64
2023/04/28 13:05:08;;;;;;;;;;;;;;;16.66;29.17;100764.92;104851;276;104159;-63
2023/04/28 13:07:40;;;;;;;;;;;;;;;16.56;28.92;100759.02;104380;276;112968;-64